createdAt,value
2016-05-18T00:00:36.978Z,993.81
2016-05-18T00:01:37.168Z,993.8
2016-05-18T00:03:36.986Z,993.82
2016-05-18T00:04:37.192Z,993.83
2016-05-18T00:05:36.977Z,993.82
2016-05-18T00:06:37.010Z,993.84
2016-05-18T00:07:36.982Z,993.82
2016-05-18T00:08:36.999Z,993.83
2016-05-18T00:09:37.002Z,993.81
2016-05-18T00:10:36.990Z,993.8
2016-05-18T00:11:37.008Z,993.76
2016-05-18T00:12:36.995Z,993.78
2016-05-18T00:13:37.013Z,993.78
2016-05-18T00:15:37.018Z,993.74
2016-05-18T00:16:37.021Z,993.74
2016-05-18T00:17:37.227Z,993.75
2016-05-18T00:18:37.027Z,993.71
2016-05-18T00:19:37.029Z,993.66
2016-05-18T00:20:37.048Z,993.66
2016-05-18T00:21:37.269Z,993.68
2016-05-18T00:22:37.037Z,993.69
2016-05-18T00:23:37.040Z,993.67
2016-05-18T00:24:37.042Z,993.65
2016-05-18T00:25:37.062Z,993.62
2016-05-18T00:26:37.064Z,993.65
2016-05-18T00:27:37.081Z,993.62
2016-05-18T00:28:37.084Z,993.59
2016-05-18T00:29:37.056Z,993.6
2016-05-18T00:30:37.059Z,993.57
2016-05-18T00:31:37.061Z,993.56
2016-05-18T00:32:37.081Z,993.59
2016-05-18T00:33:37.083Z,993.61
2016-05-18T00:34:37.069Z,993.53
2016-05-18T00:35:37.088Z,993.56
2016-05-18T00:36:37.091Z,993.54
2016-05-18T00:37:37.093Z,993.53
2016-05-18T00:38:37.112Z,993.53
2016-05-18T00:39:37.130Z,993.53
2016-05-18T00:40:37.335Z,993.52
2016-05-18T00:41:37.105Z,993.55
2016-05-18T00:42:37.107Z,993.49
2016-05-18T00:43:37.109Z,993.49
2016-05-18T00:44:37.316Z,993.47
2016-05-18T00:45:37.115Z,993.45
2016-05-18T00:46:37.118Z,993.48
2016-05-18T00:47:37.120Z,993.47
2016-05-18T00:48:37.123Z,993.48
2016-05-18T00:49:37.125Z,993.5
2016-05-18T00:50:37.363Z,993.48
2016-05-18T00:51:37.365Z,993.45
2016-05-18T00:52:37.134Z,993.47
2016-05-18T00:53:37.137Z,993.44
2016-05-18T00:54:37.154Z,993.44
2016-05-18T00:55:37.142Z,993.44
2016-05-18T00:56:37.175Z,993.42
2016-05-18T00:57:37.397Z,993.42
2016-05-18T00:58:37.150Z,993.43
2016-05-18T00:59:37.153Z,993.41
2016-05-18T01:00:37.170Z,993.41
2016-05-18T01:01:37.158Z,993.36
2016-05-18T01:02:37.380Z,993.44
2016-05-18T01:04:37.181Z,993.43
2016-05-18T01:05:37.200Z,993.4
2016-05-18T01:06:37.187Z,993.39
2016-05-18T01:07:37.221Z,993.4
2016-05-18T01:08:37.192Z,993.42
2016-05-18T01:09:37.195Z,993.43
2016-05-18T01:10:37.213Z,993.41
2016-05-18T01:11:37.200Z,993.38
2016-05-18T01:12:37.202Z,993.37
2016-05-18T01:13:37.222Z,993.37
2016-05-18T01:14:37.208Z,993.39
2016-05-18T01:15:37.445Z,993.36
2016-05-18T01:16:37.448Z,993.36
2016-05-18T01:17:37.216Z,993.36
2016-05-18T01:18:37.219Z,993.37
2016-05-18T01:19:37.221Z,993.37
2016-05-18T01:20:37.241Z,993.37
2016-05-18T01:21:37.243Z,993.39
2016-05-18T01:22:37.246Z,993.37
2016-05-18T01:23:37.232Z,993.35
2016-05-18T01:24:37.469Z,993.34
2016-05-18T01:25:37.238Z,993.35
2016-05-18T01:26:37.240Z,993.35
2016-05-18T01:27:37.243Z,993.34
2016-05-18T01:28:37.246Z,993.32
2016-05-18T01:29:37.248Z,993.32
2016-05-18T01:30:37.455Z,993.29
2016-05-18T01:31:37.253Z,993.33
2016-05-18T01:32:37.273Z,993.37
2016-05-18T01:33:37.494Z,993.34
2016-05-18T01:34:37.278Z,993.33
2016-05-18T01:35:37.311Z,993.35
2016-05-18T01:36:37.283Z,993.3
2016-05-18T01:38:37.319Z,993.3
2016-05-18T01:39:37.307Z,993.26
2016-05-18T01:40:37.294Z,993.27
2016-05-18T01:41:37.281Z,993.27
2016-05-18T01:42:37.299Z,993.3
2016-05-18T01:43:37.286Z,993.27
2016-05-18T01:44:37.305Z,993.27
2016-05-18T01:45:37.307Z,993.24
2016-05-18T01:46:37.310Z,993.23
2016-05-18T01:47:37.313Z,993.21
2016-05-18T01:48:37.519Z,993.24
2016-05-18T01:51:37.323Z,993.21
2016-05-18T01:52:37.310Z,993.16
2016-05-18T01:53:37.548Z,993.18
2016-05-18T01:54:37.331Z,993.18
2016-05-18T01:55:37.318Z,993.16
2016-05-18T01:56:37.337Z,993.19
2016-05-18T01:57:37.340Z,993.2
2016-05-18T01:58:37.342Z,993.21
2016-05-18T01:59:37.361Z,993.2
2016-05-18T02:00:37.348Z,993.16
2016-05-18T02:01:37.538Z,993.16
2016-05-18T02:02:37.542Z,993.16
2016-05-18T02:03:37.544Z,993.17
2016-05-18T02:04:37.342Z,993.16
2016-05-18T02:05:37.345Z,993.15
2016-05-18T02:06:37.364Z,993.14
2016-05-18T02:07:37.366Z,993.12
2016-05-18T02:08:37.588Z,993.13
2016-05-18T02:10:37.608Z,993.08
2016-05-18T02:11:37.378Z,993.12
2016-05-18T02:12:37.364Z,993.09
2016-05-18T02:13:37.413Z,993.1
2016-05-18T02:14:37.417Z,993.09
2016-05-18T02:15:37.372Z,993.07
2016-05-18T02:16:37.375Z,993.07
2016-05-18T02:17:37.393Z,993.07
2016-05-18T02:18:37.615Z,993.01
2016-05-18T02:19:37.618Z,992.97
2016-05-18T02:20:37.385Z,992.94
2016-05-18T02:21:37.388Z,992.95
2016-05-18T02:22:37.985Z,992.93
2016-05-18T02:23:37.394Z,992.94
2016-05-18T02:24:37.396Z,992.94
2016-05-18T02:25:37.603Z,992.93
2016-05-18T02:26:37.402Z,992.91
2016-05-18T02:27:37.404Z,992.95
2016-05-18T02:28:37.407Z,992.94
2016-05-18T02:29:37.409Z,992.92
2016-05-18T02:30:37.617Z,992.88
2016-05-18T02:31:37.415Z,992.91
2016-05-18T02:32:37.418Z,992.88
2016-05-18T02:33:37.436Z,992.84
2016-05-18T02:34:37.439Z,992.86
2016-05-18T02:35:37.458Z,992.84
2016-05-18T02:36:37.429Z,992.84
2016-05-18T02:37:37.416Z,992.84
2016-05-18T02:38:37.450Z,992.83
2016-05-18T02:39:37.469Z,992.84
2016-05-18T02:40:37.627Z,992.82
2016-05-18T02:41:37.427Z,992.81
2016-05-18T02:42:37.445Z,992.81
2016-05-18T02:43:37.432Z,992.79
2016-05-18T02:44:37.450Z,992.81
2016-05-18T02:45:37.484Z,992.82
2016-05-18T02:46:37.456Z,992.8
2016-05-18T02:47:37.458Z,992.77
2016-05-18T02:48:37.680Z,992.8
2016-05-18T02:49:37.495Z,992.81
2016-05-18T02:50:37.483Z,992.8
2016-05-18T02:51:37.454Z,992.82
2016-05-18T02:52:37.471Z,992.81
2016-05-18T02:53:37.460Z,992.83
2016-05-18T02:54:37.462Z,992.82
2016-05-18T02:55:37.479Z,992.81
2016-05-18T02:56:37.482Z,992.77
2016-05-18T02:57:37.485Z,992.75
2016-05-18T02:58:37.692Z,992.78
2016-05-18T02:59:37.490Z,992.85
2016-05-18T03:00:37.712Z,992.8
2016-05-18T03:01:37.918Z,992.8
2016-05-18T03:02:37.483Z,992.77
2016-05-18T03:03:37.486Z,992.82
2016-05-18T03:04:37.489Z,992.79
2016-05-18T03:05:37.492Z,992.82
2016-05-18T03:06:37.494Z,992.79
2016-05-18T03:07:37.512Z,992.83
2016-05-18T03:09:37.533Z,992.82
2016-05-18T03:10:37.708Z,992.84
2016-05-18T03:11:37.507Z,992.81
2016-05-18T03:12:37.526Z,992.82
2016-05-18T03:13:37.513Z,992.82
2016-05-18T03:14:37.515Z,992.83
2016-05-18T03:15:37.518Z,992.81
2016-05-18T03:16:37.521Z,992.84
2016-05-18T03:17:37.539Z,992.87
2016-05-18T09:04:13.613Z,993.01
2016-05-18T09:05:13.397Z,993.02
2016-05-18T09:06:13.602Z,993.06
2016-05-18T09:07:13.433Z,993.05
2016-05-18T09:08:13.451Z,993
2016-05-18T09:09:13.438Z,992.99
2016-05-18T09:10:13.457Z,992.96
2016-05-18T09:11:13.476Z,992.96
2016-05-18T09:12:13.509Z,992.95
2016-05-18T09:13:13.496Z,993.04
2016-05-18T09:14:13.515Z,993.01
2016-05-18T09:15:13.517Z,992.99
2016-05-18T09:16:13.536Z,993
2016-05-18T09:17:13.554Z,992.98
2016-05-18T09:18:13.573Z,992.94
2016-05-18T09:19:13.575Z,992.92
2016-05-18T09:20:13.593Z,992.92
2016-05-18T09:21:13.595Z,992.98
2016-05-18T09:22:13.614Z,992.99
2016-05-18T09:23:13.617Z,993.02
2016-05-18T09:24:13.636Z,993.03
2016-05-18T09:25:13.653Z,993.01
2016-05-18T09:26:13.656Z,992.96
2016-05-18T09:27:13.675Z,992.95
2016-05-18T09:28:13.693Z,992.92
2016-05-18T09:29:13.696Z,992.86
2016-05-18T09:30:13.713Z,992.83
2016-05-18T09:31:13.732Z,992.79
2016-05-18T09:32:13.750Z,992.75
2016-05-18T09:33:13.769Z,992.72
2016-05-18T09:34:13.974Z,992.68
2016-05-18T09:35:13.790Z,992.71
2016-05-18T09:36:13.793Z,992.7
2016-05-18T09:37:13.810Z,992.72
2016-05-18T09:38:13.813Z,992.75
2016-05-18T09:39:13.832Z,992.77
2016-05-18T09:40:13.851Z,992.79
2016-05-18T09:41:13.868Z,992.81
2016-05-18T09:42:13.871Z,992.89
2016-05-18T09:43:13.889Z,992.9
2016-05-18T09:44:13.907Z,992.92
2016-05-18T09:45:13.926Z,992.91
2016-05-18T09:46:13.960Z,992.9
2016-05-18T09:47:13.947Z,992.87
2016-05-18T09:48:13.950Z,992.82
2016-05-18T09:49:13.968Z,992.75
2016-05-18T09:50:13.986Z,992.66
2016-05-18T09:51:13.989Z,992.67
2016-05-18T09:52:14.008Z,992.63
2016-05-18T09:53:14.042Z,992.62
2016-05-18T09:54:14.075Z,992.64
2016-05-18T09:55:14.062Z,992.65
2016-05-18T09:56:14.065Z,992.7
2016-05-18T09:57:14.084Z,992.71
2016-05-18T09:58:14.102Z,992.7
2016-05-18T09:59:14.105Z,992.72
2016-05-18T10:00:14.107Z,992.68
2016-05-18T10:01:14.141Z,992.72
2016-05-18T10:02:14.160Z,992.71
2016-05-18T10:03:14.163Z,992.73
2016-05-18T10:04:14.165Z,992.78
2016-05-18T10:05:14.261Z,992.78
2016-05-18T10:06:14.264Z,992.76
2016-05-18T10:07:14.219Z,992.78
2016-05-18T10:08:14.457Z,992.78
2016-05-18T10:09:14.304Z,992.8
2016-05-18T10:10:14.243Z,992.76
2016-05-18T10:11:14.324Z,992.78
2016-05-18T10:12:14.265Z,992.74
2016-05-18T10:13:14.282Z,992.75
2016-05-18T10:14:14.363Z,992.77
2016-05-18T10:15:14.398Z,992.71
2016-05-18T10:16:14.322Z,992.66
2016-05-18T10:17:14.340Z,992.64
2016-05-18T10:18:14.437Z,992.64
2016-05-18T10:19:14.424Z,992.63
2016-05-18T10:20:14.458Z,992.69
2016-05-18T10:21:14.461Z,992.73
2016-05-18T10:22:14.479Z,992.71
2016-05-18T10:23:14.481Z,992.69
2016-05-18T10:24:14.500Z,992.67
2016-05-18T10:25:14.503Z,992.69
2016-05-18T10:26:14.520Z,992.73
2016-05-18T10:27:14.727Z,992.7
2016-05-18T10:28:14.636Z,992.76
2016-05-18T10:29:14.575Z,992.74
2016-05-18T10:30:14.578Z,992.71
2016-05-18T10:31:14.597Z,992.71
2016-05-18T10:32:14.537Z,992.69
2016-05-18T10:33:14.555Z,992.74
2016-05-18T10:34:14.636Z,992.75
2016-05-18T10:35:14.577Z,992.74
2016-05-18T10:36:14.595Z,992.68
2016-05-18T10:37:14.613Z,992.66
2016-05-18T10:38:14.615Z,992.71
2016-05-18T10:39:14.649Z,992.67
2016-05-18T10:40:14.715Z,992.69
2016-05-18T10:41:14.733Z,992.67
2016-05-18T10:42:14.705Z,992.65
2016-05-18T10:43:14.707Z,992.61
2016-05-18T10:44:14.757Z,992.56
2016-05-18T10:45:14.776Z,992.58
2016-05-18T10:46:14.793Z,992.58
2016-05-18T10:47:14.874Z,992.58
2016-05-18T10:49:14.833Z,992.59
2016-05-18T10:50:14.820Z,992.59
2016-05-18T10:51:14.806Z,992.57
2016-05-18T10:52:14.826Z,992.63
2016-05-18T10:53:15.172Z,992.59
2016-05-18T10:54:14.846Z,992.59
2016-05-18T10:55:14.928Z,992.61
2016-05-18T10:56:14.961Z,992.6
2016-05-18T10:57:15.026Z,992.56
2016-05-18T10:58:14.904Z,992.5
2016-05-18T10:59:14.984Z,992.55
2016-05-18T11:00:14.956Z,992.56
2016-05-18T11:01:15.006Z,992.55
2016-05-18T11:02:14.962Z,992.57
2016-05-18T11:03:15.027Z,992.51
2016-05-18T11:04:14.998Z,992.47
2016-05-18T11:05:15.000Z,992.51
2016-05-18T11:06:15.175Z,992.5
2016-05-18T11:07:15.038Z,992.44
2016-05-18T11:08:15.103Z,992.41
2016-05-18T11:09:15.136Z,992.41
2016-05-18T11:10:15.123Z,992.44
2016-05-18T11:11:15.174Z,992.43
2016-05-18T11:12:15.113Z,992.41
2016-05-18T11:13:15.132Z,992.38
2016-05-18T11:14:15.150Z,992.37
2016-05-18T11:15:15.152Z,992.39
2016-05-18T11:16:15.233Z,992.42
2016-05-18T11:17:15.268Z,992.42
2016-05-18T11:18:15.270Z,992.43
2016-05-18T11:19:15.429Z,992.39
2016-05-18T11:20:15.259Z,992.37
2016-05-18T11:21:15.325Z,992.36
2016-05-18T11:22:15.390Z,992.36
2016-05-18T11:23:15.284Z,992.31
2016-05-18T11:24:15.301Z,992.27
2016-05-18T11:25:15.367Z,992.24
2016-05-18T11:26:15.386Z,992.22
2016-05-18T11:27:15.403Z,992.21
2016-05-18T11:28:15.407Z,992.21
2016-05-18T11:29:15.362Z,992.15
2016-05-18T11:30:15.380Z,992.15
2016-05-18T11:31:15.399Z,992.16
2016-05-18T11:32:15.652Z,992.14
2016-05-18T11:33:15.419Z,992.19
2016-05-18T11:34:15.453Z,992.18
2016-05-18T11:35:15.503Z,992.16
2016-05-18T11:36:15.459Z,992.16
2016-05-18T11:37:15.540Z,992.15
2016-05-18T11:38:15.558Z,992.16
2016-05-18T11:39:15.561Z,992.16
2016-05-18T11:40:15.516Z,992.15
2016-05-18T11:41:15.722Z,992.11
2016-05-18T11:42:15.554Z,992.15
2016-05-18T11:43:15.650Z,992.13
2016-05-18T11:44:15.574Z,992.13
2016-05-18T11:45:15.593Z,992.17
2016-05-18T11:46:15.610Z,992.18
2016-05-18T11:47:15.660Z,992.16
2016-05-18T11:48:15.632Z,992.17
2016-05-18T11:49:15.650Z,992.14
2016-05-18T11:50:15.685Z,992.15
2016-05-18T11:51:15.671Z,992.14
2016-05-18T11:52:15.720Z,992.15
2016-05-18T11:53:15.709Z,992.19
2016-05-18T11:54:15.851Z,992.16
2016-05-18T11:55:15.729Z,992.14
2016-05-18T11:56:15.856Z,992.16
2016-05-18T11:57:15.765Z,992.13
2016-05-18T11:58:15.831Z,992.11
2016-05-18T11:59:15.864Z,992.09
2016-05-18T12:00:15.805Z,992.13
2016-05-18T12:01:15.839Z,992.08
2016-05-18T12:02:16.091Z,992.08
2016-05-18T12:03:15.844Z,992.06
2016-05-18T12:04:15.863Z,992.05
2016-05-18T12:05:15.928Z,992.06
2016-05-18T12:06:16.149Z,992.04
2016-05-18T12:07:16.183Z,992.05
2016-05-18T12:08:16.280Z,992.05
2016-05-18T12:09:15.938Z,992.03
2016-05-18T12:10:15.941Z,992.06
2016-05-18T12:11:16.038Z,992.05
2016-05-18T12:12:15.978Z,992.06
2016-05-18T12:13:16.058Z,992.05
2016-05-18T12:14:16.390Z,992.07
2016-05-18T12:15:16.048Z,992.04
2016-05-18T12:16:16.035Z,992.09
2016-05-18T12:17:16.038Z,992.07
2016-05-18T12:18:16.056Z,992.1
2016-05-18T12:19:16.216Z,992.08
2016-05-18T12:20:16.234Z,992.05
2016-05-18T12:21:16.095Z,992
2016-05-18T12:22:16.115Z,992.03
2016-05-18T12:23:16.257Z,991.99
2016-05-18T12:24:16.197Z,991.99
2016-05-18T12:25:16.170Z,991.99
2016-05-18T12:26:16.218Z,991.95
2016-05-18T12:27:16.190Z,991.95
2016-05-18T12:28:16.286Z,991.97
2016-05-18T12:29:16.226Z,991.99
2016-05-18T12:30:16.308Z,991.95
2016-05-18T12:31:16.310Z,991.93
2016-05-18T12:32:16.266Z,991.95
2016-05-18T12:33:16.284Z,991.91
2016-05-18T12:34:16.302Z,991.91
2016-05-18T12:35:16.322Z,991.88
2016-05-18T12:36:16.324Z,991.91
2016-05-18T12:37:16.404Z,991.9
2016-05-18T12:38:16.501Z,991.88
2016-05-18T12:39:16.363Z,991.85
2016-05-18T12:40:16.380Z,991.83
2016-05-18T12:41:16.571Z,991.83
2016-05-18T12:42:16.418Z,991.83
2016-05-18T12:43:16.436Z,991.78
2016-05-18T12:44:16.626Z,991.79
2016-05-18T12:45:16.582Z,991.73
2016-05-18T12:46:16.476Z,991.66
2016-05-18T12:47:16.572Z,991.66
2016-05-18T12:48:16.590Z,991.67
2016-05-18T12:49:16.529Z,991.7
2016-05-18T12:50:16.549Z,991.7
2016-05-18T12:51:16.567Z,991.7
2016-05-18T12:52:16.788Z,991.66
2016-05-18T12:53:16.682Z,991.64
2016-05-18T12:54:16.653Z,991.62
2016-05-18T12:55:16.609Z,991.61
2016-05-18T12:56:16.628Z,991.58
2016-05-18T12:57:16.912Z,991.58
2016-05-18T12:58:16.679Z,991.61
2016-05-18T12:59:16.854Z,991.63
2016-05-18T13:00:16.966Z,991.57
2016-05-18T13:01:16.719Z,991.61
2016-05-18T13:02:16.722Z,991.6
2016-05-18T13:03:16.803Z,991.63
2016-05-18T13:04:16.758Z,991.64
2016-05-18T13:05:16.917Z,991.65
2016-05-18T13:06:16.873Z,991.64
2016-05-18T13:07:16.892Z,991.67
2016-05-18T13:08:17.191Z,991.68
2016-05-18T13:09:16.944Z,991.7
2016-05-18T13:10:16.916Z,991.7
2016-05-18T13:11:16.871Z,991.77
2016-05-18T13:12:16.889Z,991.74
2016-05-18T13:13:16.907Z,991.72
2016-05-18T13:14:16.910Z,991.72
2016-05-18T13:15:16.929Z,991.71
2016-05-18T13:16:16.947Z,991.7
2016-05-18T13:17:16.965Z,991.67
2016-05-18T13:18:16.983Z,991.67
2016-05-18T13:19:16.986Z,991.65
2016-05-18T13:20:17.004Z,991.68
2016-05-18T13:21:17.023Z,991.6
2016-05-18T13:22:17.041Z,991.62
2016-05-18T13:23:17.153Z,991.56
2016-05-18T13:24:17.156Z,991.6
2016-05-18T13:25:17.142Z,991.58
2016-05-18T13:26:17.239Z,991.55
2016-05-18T13:27:17.242Z,991.58
2016-05-18T13:28:17.120Z,991.52
2016-05-18T13:29:17.137Z,991.48
2016-05-18T13:30:17.156Z,991.56
2016-05-18T13:31:17.174Z,991.54
2016-05-18T13:32:17.178Z,991.53
2016-05-18T13:33:17.211Z,991.57
2016-05-18T13:34:17.245Z,991.51
2016-05-18T13:35:17.233Z,991.51
2016-05-18T13:36:17.314Z,991.52
2016-05-18T13:37:17.316Z,991.53
2016-05-18T13:38:17.397Z,991.54
2016-05-18T13:39:17.446Z,991.52
2016-05-18T13:40:17.339Z,991.48
2016-05-18T13:41:17.639Z,991.5
2016-05-18T13:42:17.344Z,991.53
2016-05-18T13:43:17.441Z,991.51
2016-05-18T13:44:17.366Z,991.49
2016-05-18T13:45:17.369Z,991.47
2016-05-18T13:46:17.402Z,991.51
2016-05-18T13:47:17.405Z,991.5
2016-05-18T13:48:17.424Z,991.49
2016-05-18T13:49:17.441Z,991.5
2016-05-18T13:50:17.507Z,991.46
2016-05-18T13:51:17.463Z,991.44
2016-05-18T13:52:17.481Z,991.41
2016-05-18T13:53:17.499Z,991.44
2016-05-18T13:54:17.501Z,991.39
2016-05-18T13:55:17.537Z,991.4
2016-05-18T13:56:17.539Z,991.41
2016-05-18T13:57:17.557Z,991.41
2016-05-18T13:58:17.559Z,991.37
2016-05-18T13:59:17.593Z,991.36
2016-05-18T14:00:17.596Z,991.36
2016-05-18T14:01:17.631Z,991.36
2016-05-18T14:02:17.820Z,991.35
2016-05-18T14:03:17.651Z,991.36
2016-05-18T14:04:17.686Z,991.33
2016-05-18T14:05:17.688Z,991.33
2016-05-18T14:06:17.691Z,991.33
2016-05-18T14:07:17.694Z,991.32
2016-05-18T14:08:17.712Z,991.3
2016-05-18T14:09:17.745Z,991.31
2016-05-18T14:10:17.747Z,991.3
2016-05-18T14:11:17.766Z,991.31
2016-05-18T14:12:17.786Z,991.29
2016-05-18T14:13:17.788Z,991.34
2016-05-18T14:14:17.805Z,991.28
2016-05-18T14:15:17.824Z,991.31
2016-05-18T14:16:17.843Z,991.32
2016-05-18T14:17:17.877Z,991.32
2016-05-18T14:18:17.864Z,991.31
2016-05-18T14:19:17.882Z,991.26
2016-05-18T14:20:17.885Z,991.26
2016-05-18T14:21:17.902Z,991.3
2016-05-18T14:22:18.327Z,991.29
2016-05-18T14:23:17.940Z,991.29
2016-05-18T14:24:17.957Z,991.27
2016-05-18T14:25:17.961Z,991.24
2016-05-18T14:26:17.979Z,991.28
2016-05-18T14:27:17.998Z,991.25
2016-05-18T14:28:18.016Z,991.25
2016-05-18T14:29:18.018Z,991.27
2016-05-18T14:30:18.037Z,991.25
2016-05-18T14:31:18.054Z,991.27
2016-05-18T14:32:18.089Z,991.22
2016-05-18T14:33:18.326Z,991.22
2016-05-18T14:34:18.095Z,991.23
2016-05-18T14:35:18.112Z,991.22
2016-05-18T14:36:18.131Z,991.21
2016-05-18T14:37:18.150Z,991.23
2016-05-18T14:38:18.167Z,991.22
2016-05-18T14:39:18.170Z,991.2
2016-05-18T14:40:18.189Z,991.21
2016-05-18T14:41:18.207Z,991.21
2016-05-18T14:42:18.256Z,991.22
2016-05-18T14:43:18.244Z,991.24
2016-05-18T14:44:18.246Z,991.21
2016-05-18T14:45:18.265Z,991.19
2016-05-18T14:46:18.283Z,991.18
2016-05-18T14:47:18.301Z,991.17
2016-05-18T14:48:18.319Z,991.2
2016-05-18T14:49:18.525Z,991.21
2016-05-18T14:50:18.340Z,991.15
2016-05-18T14:51:18.358Z,991.17
2016-05-18T14:52:18.377Z,991.13
2016-05-18T14:53:18.396Z,991.13
2016-05-18T14:54:18.429Z,991.12
2016-05-18T14:55:18.416Z,991.13
2016-05-18T14:56:18.685Z,991.11
2016-05-18T14:57:18.454Z,991.07
2016-05-18T14:58:18.471Z,991.09
2016-05-18T14:59:18.505Z,991.07
2016-05-18T15:00:18.507Z,991.07
2016-05-18T15:01:18.510Z,991.07
2016-05-18T15:02:18.528Z,991.02
2016-05-18T15:03:18.547Z,991.02
2016-05-18T15:04:18.769Z,991
2016-05-18T15:05:18.568Z,990.99
2016-05-18T15:06:18.587Z,991
2016-05-18T15:07:18.620Z,990.96
2016-05-18T15:08:18.623Z,990.97
2016-05-18T15:09:18.641Z,990.96
2016-05-18T15:10:18.660Z,990.94
2016-05-18T15:11:18.897Z,990.93
2016-05-18T15:12:18.681Z,990.91
2016-05-18T15:13:18.918Z,990.92
2016-05-18T15:14:18.717Z,990.91
2016-05-18T15:15:18.766Z,990.88
2016-05-18T15:16:18.738Z,990.89
2016-05-18T15:17:18.758Z,990.85
2016-05-18T15:18:19.010Z,990.84
2016-05-18T15:19:18.825Z,990.85
2016-05-18T15:20:18.796Z,990.8
2016-05-18T15:21:19.018Z,990.81
2016-05-18T15:22:18.849Z,990.78
2016-05-18T15:23:18.866Z,990.76
2016-05-18T15:24:18.869Z,990.75
2016-05-18T15:25:18.888Z,990.73
2016-05-18T15:26:18.891Z,990.73
2016-05-18T15:27:18.909Z,990.72
2016-05-18T15:28:18.927Z,990.76
2016-05-18T15:29:18.946Z,990.73
2016-05-18T15:30:18.963Z,990.73
2016-05-18T15:31:18.982Z,990.72
2016-05-18T15:32:19.000Z,990.67
2016-05-18T15:33:19.003Z,990.68
2016-05-18T15:34:19.256Z,990.63
2016-05-18T15:35:19.056Z,990.66
2016-05-18T15:36:19.058Z,990.66
2016-05-18T15:37:19.061Z,990.59
2016-05-18T15:38:19.078Z,990.56
2016-05-18T15:39:19.317Z,990.6
2016-05-18T15:40:19.115Z,990.57
2016-05-18T15:41:19.134Z,990.56
2016-05-18T15:42:19.136Z,990.57
2016-05-18T15:43:19.155Z,990.53
2016-05-18T15:44:19.173Z,990.53
2016-05-18T15:45:19.192Z,990.52
2016-05-18T15:46:19.194Z,990.51
2016-05-18T15:47:19.463Z,990.54
2016-05-18T15:48:19.230Z,990.5
2016-05-18T15:49:19.249Z,990.49
2016-05-18T15:50:19.252Z,990.46
2016-05-18T15:51:19.270Z,990.47
2016-05-18T15:52:19.288Z,990.45
2016-05-18T15:53:19.307Z,990.46
2016-05-18T15:54:19.325Z,990.45
2016-05-18T15:55:19.343Z,990.47
2016-05-18T15:56:19.347Z,990.43
2016-05-18T15:57:19.568Z,990.44
2016-05-18T15:58:19.383Z,990.4
2016-05-18T15:59:19.385Z,990.41
2016-05-18T16:00:19.404Z,990.39
2016-05-18T16:01:19.421Z,990.39
2016-05-18T16:02:26.207Z,990.36
2016-05-18T16:03:19.459Z,990.31
2016-05-18T16:04:19.462Z,990.35
2016-05-18T16:05:19.479Z,990.3
2016-05-18T16:06:19.498Z,990.32
2016-05-18T16:07:19.501Z,990.25
2016-05-18T16:08:19.519Z,990.28
2016-05-18T16:09:19.537Z,990.26
2016-05-18T16:10:19.556Z,990.26
2016-05-18T16:11:19.559Z,990.22
2016-05-18T16:12:19.576Z,990.26
2016-05-18T16:13:19.595Z,990.26
2016-05-18T16:14:19.614Z,990.2
2016-05-18T16:16:19.666Z,990.24
2016-05-18T16:17:19.669Z,990.21
2016-05-18T16:18:19.655Z,990.22
2016-05-18T16:19:19.689Z,990.26
2016-05-18T16:21:19.695Z,990.22
2016-05-18T16:22:19.713Z,990.23
2016-05-18T16:23:19.731Z,990.22
2016-05-18T16:24:19.749Z,990.2
2016-05-18T16:25:19.753Z,990.23
2016-05-18T16:26:19.771Z,990.23
2016-05-18T16:27:19.773Z,990.24
2016-05-18T16:28:19.791Z,990.23
2016-05-18T16:29:20.013Z,990.21
2016-05-18T16:30:20.063Z,990.17
2016-05-18T16:31:19.863Z,990.2
2016-05-18T16:32:19.850Z,990.24
2016-05-18T16:33:19.868Z,990.25
2016-05-18T16:34:19.886Z,990.25
2016-05-18T16:35:19.888Z,990.23
2016-05-18T16:36:19.923Z,990.22
2016-05-18T16:37:19.910Z,990.2
2016-05-18T16:38:19.928Z,990.18
2016-05-18T16:39:19.931Z,990.18
2016-05-18T16:40:19.949Z,990.21
2016-05-18T16:41:19.984Z,990.12
2016-05-18T16:42:19.986Z,990.13
2016-05-18T16:43:19.989Z,990.13
2016-05-18T16:44:19.992Z,990.07
2016-05-18T16:45:20.010Z,990.08
2016-05-18T16:46:20.027Z,990.08
2016-05-18T16:47:20.108Z,990.05
2016-05-18T16:48:20.252Z,990.04
2016-05-18T16:49:20.317Z,990.02
2016-05-18T16:50:20.069Z,989.98
2016-05-18T16:51:20.228Z,989.98
2016-05-18T16:52:20.106Z,990.02
2016-05-18T16:53:20.219Z,990.03
2016-05-18T16:54:20.127Z,989.99
2016-05-18T16:55:20.146Z,990.03
2016-05-18T16:56:20.149Z,989.99
2016-05-18T16:57:20.167Z,990
2016-05-18T16:58:20.372Z,990
2016-05-18T16:59:20.188Z,989.98
2016-05-18T17:00:20.205Z,989.97
2016-05-18T17:01:20.209Z,989.97
2016-05-18T17:02:20.711Z,989.91
2016-05-18T17:03:20.246Z,989.92
2016-05-18T17:04:20.248Z,989.94
2016-05-18T17:05:20.250Z,989.9
2016-05-18T17:06:20.254Z,989.87
2016-05-18T17:07:20.271Z,989.89
2016-05-18T17:08:20.290Z,989.87
2016-05-18T17:09:20.292Z,989.86
2016-05-18T17:10:20.312Z,989.85
2016-05-18T17:11:20.345Z,989.83
2016-05-18T17:12:20.362Z,989.86
2016-05-18T17:13:20.365Z,989.84
2016-05-18T17:14:20.369Z,989.84
2016-05-18T17:15:20.370Z,989.82
2016-05-18T17:16:20.374Z,989.8
2016-05-18T17:17:20.392Z,989.82
2016-05-18T17:18:20.411Z,989.77
2016-05-18T17:19:20.414Z,989.78
2016-05-18T17:20:20.416Z,989.77
2016-05-18T17:21:20.434Z,989.79
2016-05-18T17:22:20.453Z,989.79
2016-05-18T17:23:20.455Z,989.74
2016-05-18T17:24:20.505Z,989.78
2016-05-18T17:26:20.494Z,989.76
2016-05-18T17:27:20.716Z,989.73
2016-05-18T17:28:20.516Z,989.7
2016-05-18T17:29:20.519Z,989.72
2016-05-18T17:30:20.536Z,989.72
2016-05-18T17:31:20.538Z,989.71
2016-05-18T17:32:20.542Z,989.73
2016-05-18T17:33:20.560Z,989.74
2016-05-18T17:34:30.185Z,989.69
2016-05-18T17:35:20.636Z,989.7
2016-05-18T17:36:20.791Z,989.71
2016-05-18T17:37:20.773Z,989.72
2016-05-18T17:38:20.802Z,989.7
2016-05-18T17:39:21.073Z,989.71
2016-05-18T17:40:20.905Z,989.74
2016-05-18T17:41:21.109Z,989.74
2016-05-18T17:42:20.940Z,989.74
2016-05-18T17:43:20.958Z,989.74
2016-05-18T17:44:20.988Z,989.69
2016-05-18T17:45:20.982Z,989.71
2016-05-18T17:46:21.004Z,989.67
2016-05-18T17:47:21.013Z,989.69
2016-05-18T17:48:21.020Z,989.69
2016-05-18T17:49:21.075Z,989.64
2016-05-18T17:50:21.064Z,989.64
2016-05-18T17:51:21.083Z,989.69
2016-05-18T17:52:21.089Z,989.72
2016-05-18T17:53:21.313Z,989.7
2016-05-18T17:54:21.113Z,989.71
2016-05-18T17:55:21.116Z,989.76
2016-05-18T17:56:21.121Z,989.71
2016-05-18T17:57:21.280Z,989.72
2016-05-18T17:58:21.252Z,989.7
2016-05-18T17:59:21.224Z,989.71
2016-05-18T18:00:21.212Z,989.71
2016-05-18T18:01:21.184Z,989.72
2016-05-18T18:02:21.280Z,989.72
2016-05-18T18:03:21.330Z,989.65
2016-05-18T18:04:21.442Z,989.66
2016-05-18T18:05:21.290Z,989.67
2016-05-18T18:06:21.245Z,989.68
2016-05-18T18:07:21.295Z,989.63
2016-05-18T18:08:21.343Z,989.61
2016-05-18T18:09:21.269Z,989.65
2016-05-18T18:10:21.271Z,989.64
2016-05-18T18:11:21.289Z,989.63
2016-05-18T18:12:21.308Z,989.6
2016-05-18T18:13:21.311Z,989.59
2016-05-18T18:14:21.314Z,989.61
2016-05-18T18:15:21.347Z,989.58
2016-05-18T18:16:21.334Z,989.57
2016-05-18T18:17:21.352Z,989.55
2016-05-18T18:18:21.543Z,989.55
2016-05-18T18:19:21.561Z,989.54
2016-05-18T18:20:21.392Z,989.55
2016-05-18T18:21:21.379Z,989.52
2016-05-18T18:22:21.397Z,989.53
2016-05-18T18:23:21.400Z,989.51
2016-05-18T18:24:21.433Z,989.55
2016-05-18T18:25:21.421Z,989.47
2016-05-18T18:26:21.424Z,989.5
2016-05-18T18:27:21.458Z,989.53
2016-05-18T18:28:21.444Z,989.52
2016-05-18T18:29:21.463Z,989.51